This is the latest recevied weather packets stored in our database for station/object HB9TVK-13. If no packets are shown the sender has not sent any weather packets the latest 1 day(s).
| Time | Temp. | Humidity | Pressure | Rain* | Wind** | Luminosity | Snow |
|---|---|---|---|---|---|---|---|
| 1778096836 | 8.33° C | 91% | 1011.7 hPa | 0 mm | - | - | - |
| 1778094438 | 8.89° C | 89% | 1011.3 hPa | 0 mm | - | - | - |
| 1778093838 | 8.89° C | 89% | 1011.2 hPa | 0 mm | - | - | - |
| 1778091437 | 8.89° C | 91% | 1010.9 hPa | 0 mm | - | - | - |
| 1778090237 | 8.89° C | 89% | 1010.6 hPa | 0 mm | - | - | - |
| 1778089036 | 9.44° C | 90% | 1010.4 hPa | 0 mm | - | - | - |
| 1778088436 | 9.44° C | 89% | 1010.3 hPa | 0 mm | - | - | - |
| 1778087237 | 9.44° C | 88% | 1010.3 hPa | 0 mm | - | - | - |
| 1778086637 | 9.44° C | 88% | 1010.2 hPa | 0 mm | - | - | - |
| 1778085438 | 9.44° C | 87% | 1010.2 hPa | 0 mm | - | - | - |
| 1778084236 | 9.44° C | 88% | 1010.1 hPa | 0 mm | - | - | - |
| 1778081837 | 9.44° C | 92% | 1010.1 hPa | 0 mm | - | - | - |
| 1778080636 | 9.44° C | 92% | 1010.1 hPa | 0 mm | - | - | - |
| 1778080036 | 9.44° C | 91% | 1010.1 hPa | 0 mm | - | - | - |
| 1778079437 | 9.44° C | 92% | 1010.1 hPa | 0 mm | - | - | - |
| 1778078237 | 8.89° C | 93% | 1010.1 hPa | 0.25 mm | - | - | - |
| 1778077038 | 8.89° C | 94% | 1010 hPa | 0.51 mm | - | - | - |
| 1778076436 | 8.89° C | 94% | 1010 hPa | 0.76 mm | - | - | - |
| 1778075836 | 8.33° C | 94% | 1010 hPa | 1.02 mm | - | - | - |
| 1778075237 | 8.33° C | 94% | 1010 hPa | 1.27 mm | - | - | - |
| 1778074637 | 8.33° C | 95% | 1010 hPa | 1.27 mm | - | - | - |
| 1778074037 | 8.33° C | 95% | 1010 hPa | 1.27 mm | - | - | - |
| 1778072838 | 8.33° C | 95% | 1009.9 hPa | 1.52 mm | - | - | - |
| 1778068638 | 11.11° C | 94% | 1008.6 hPa | 1.02 mm | - | - | - |
| 1778068036 | 11.67° C | 93% | 1008.5 hPa | 0.51 mm | - | - | - |
* Rain latest hour (hover to see other rain measurements)
** Current wind speed in m/s (hover to see current wind gust speed)